createdAt,value
2018-12-20T00:03:49.304Z,88.62
2018-12-20T00:09:53.041Z,88.47
2018-12-20T00:15:56.642Z,88.50
2018-12-20T00:22:00.049Z,88.27
2018-12-20T00:28:03.422Z,88.13
2018-12-20T00:34:06.960Z,87.45
2018-12-20T00:40:10.384Z,87.86
2018-12-20T00:46:13.878Z,87.94
2018-12-20T00:52:17.369Z,87.35
2018-12-20T00:58:20.748Z,87.97
2018-12-20T01:04:24.111Z,88.40
2018-12-20T01:10:27.601Z,88.53
2018-12-20T01:16:31.182Z,87.25
2018-12-20T01:22:34.848Z,88.01
2018-12-20T01:28:38.301Z,87.94
2018-12-20T01:34:41.723Z,88.10
2018-12-20T01:40:45.237Z,88.70
2018-12-20T01:46:49.168Z,89.42
2018-12-20T01:52:52.533Z,89.49
2018-12-20T01:58:55.963Z,89.38
2018-12-20T02:04:59.318Z,89.26
2018-12-20T02:11:02.813Z,89.51
2018-12-20T02:17:06.224Z,89.72
2018-12-20T02:23:09.759Z,90.10
2018-12-20T02:29:13.475Z,90.07
2018-12-20T02:35:17.094Z,90.03
2018-12-20T02:41:21.525Z,89.81
2018-12-20T02:53:40.613Z,89.98
2018-12-20T02:59:43.939Z,90.13
2018-12-20T03:05:47.355Z,89.53
2018-12-20T03:11:51.433Z,90.08
2018-12-20T03:17:54.918Z,90.17
2018-12-20T03:23:58.518Z,90.24
2018-12-20T03:30:02.008Z,90.05
2018-12-20T03:36:05.510Z,89.82
2018-12-20T03:42:08.888Z,89.65
2018-12-20T03:48:12.347Z,89.58
2018-12-20T03:54:15.978Z,89.32
2018-12-20T04:00:19.525Z,89.69
2018-12-20T04:06:22.948Z,90.04
2018-12-20T04:12:27.107Z,89.87
2018-12-20T04:18:30.573Z,90.24
2018-12-20T04:24:34.045Z,90.58
2018-12-20T04:30:37.575Z,90.87
2018-12-20T04:36:40.941Z,90.72
2018-12-20T04:42:44.296Z,90.87
2018-12-20T04:48:47.787Z,91.31
2018-12-20T04:54:51.682Z,91.04
2018-12-20T05:00:55.111Z,90.94
2018-12-20T05:06:58.557Z,91.43
2018-12-20T05:13:02.016Z,91.50
2018-12-20T05:19:05.754Z,91.76
2018-12-20T05:25:09.289Z,90.82
2018-12-20T05:31:12.686Z,91.43
2018-12-20T05:37:16.051Z,91.18
2018-12-20T05:43:19.393Z,90.95
2018-12-20T05:49:22.731Z,91.22
2018-12-20T05:55:26.114Z,91.45
2018-12-20T06:01:29.581Z,91.58
2018-12-20T06:07:33.140Z,91.49
2018-12-20T06:13:36.588Z,91.10
2018-12-20T06:19:40.029Z,91.11
2018-12-20T06:25:43.482Z,90.88
2018-12-20T06:31:46.838Z,90.94
2018-12-20T06:37:50.195Z,91.30
2018-12-20T06:43:53.604Z,91.15
2018-12-20T06:49:56.945Z,91.32
2018-12-20T06:56:00.275Z,90.68
2018-12-20T07:02:03.708Z,91.67
2018-12-20T07:08:07.040Z,91.36
2018-12-20T07:14:10.375Z,91.58
2018-12-20T07:20:13.719Z,91.21
2018-12-20T07:26:17.056Z,92.40
2018-12-20T07:32:25.120Z,92.33
2018-12-20T07:38:25.771Z,92.23
2018-12-20T07:44:29.142Z,92.29
2018-12-20T07:50:32.493Z,92.18
2018-12-20T07:56:35.921Z,92.17
2018-12-20T08:02:39.265Z,92.45
2018-12-20T08:08:42.602Z,92.17
2018-12-20T08:14:45.940Z,91.74
2018-12-20T08:20:49.294Z,91.69
2018-12-20T08:26:52.632Z,90.92
2018-12-20T08:32:55.967Z,91.84
2018-12-20T08:38:59.309Z,91.00
2018-12-20T08:45:02.634Z,89.59
2018-12-20T08:51:05.983Z,89.63
2018-12-20T08:57:09.351Z,88.97
2018-12-20T09:03:12.690Z,88.97
2018-12-20T09:09:16.040Z,89.00
2018-12-20T09:15:19.381Z,89.54
2018-12-20T09:21:22.779Z,87.89
2018-12-20T09:27:26.100Z,88.44
2018-12-20T09:33:29.425Z,88.46
2018-12-20T09:39:32.760Z,87.62
2018-12-20T09:45:36.123Z,87.80
2018-12-20T09:51:39.473Z,87.57
2018-12-20T09:57:42.820Z,87.50
2018-12-20T10:03:46.169Z,88.54
2018-12-20T10:09:49.499Z,88.23
2018-12-20T10:15:52.872Z,88.23
2018-12-20T10:21:56.224Z,88.00
2018-12-20T10:27:59.858Z,88.88
2018-12-20T10:34:03.206Z,88.54
2018-12-20T10:40:06.836Z,89.07
2018-12-20T10:46:10.197Z,88.44
2018-12-20T10:52:13.748Z,87.61
2018-12-20T10:58:17.099Z,87.04
2018-12-20T11:04:26.743Z,85.52
2018-12-20T11:10:30.080Z,85.59
2018-12-20T11:16:33.415Z,86.32
2018-12-20T11:22:36.784Z,85.90
2018-12-20T11:28:40.123Z,86.57
2018-12-20T11:34:43.514Z,85.90
2018-12-20T11:40:46.858Z,85.63
2018-12-20T11:46:50.272Z,85.98
2018-12-20T11:52:53.597Z,85.34
2018-12-20T11:58:56.937Z,84.93
2018-12-20T12:05:00.283Z,85.09
2018-12-20T12:11:03.628Z,83.50
2018-12-20T12:17:06.955Z,83.08
2018-12-20T12:23:10.519Z,81.73
2018-12-20T12:29:13.876Z,81.40
2018-12-20T12:35:17.209Z,80.57
2018-12-20T12:41:20.551Z,80.78
2018-12-20T12:47:29.368Z,81.11
2018-12-20T12:53:32.698Z,81.24
2018-12-20T12:59:36.027Z,80.74
2018-12-20T13:05:39.413Z,81.02
2018-12-20T13:11:42.804Z,80.67
2018-12-20T13:17:46.162Z,80.42
2018-12-20T13:23:49.500Z,80.17
2018-12-20T13:29:52.822Z,78.91
2018-12-20T13:35:56.266Z,79.58
2018-12-20T13:41:59.615Z,79.49
2018-12-20T13:48:02.946Z,78.47
2018-12-20T13:54:06.282Z,78.47
2018-12-20T14:06:26.356Z,79.45
2018-12-20T14:12:30.424Z,79.84
2018-12-20T14:18:33.753Z,79.31
2018-12-20T14:24:37.071Z,79.51
2018-12-20T14:30:40.478Z,79.01
2018-12-20T14:36:43.802Z,79.75
2018-12-20T14:42:47.126Z,79.77
2018-12-20T14:48:50.469Z,79.63
2018-12-20T14:54:53.830Z,80.56
2018-12-20T15:00:57.191Z,81.09
2018-12-20T15:07:00.520Z,80.70
2018-12-20T15:13:03.867Z,80.63
2018-12-20T15:19:07.217Z,79.51
2018-12-20T15:25:10.567Z,80.69
2018-12-20T15:31:13.928Z,80.61
2018-12-20T15:37:17.255Z,80.73
2018-12-20T15:43:20.613Z,81.00
2018-12-20T15:49:23.936Z,81.06
2018-12-20T15:55:27.270Z,81.58
2018-12-20T16:01:30.607Z,82.32
2018-12-20T16:07:33.948Z,82.95
2018-12-20T16:13:37.270Z,82.65
2018-12-20T16:19:40.605Z,82.97
2018-12-20T16:25:43.983Z,82.73
2018-12-20T16:31:47.336Z,83.14
2018-12-20T16:37:50.843Z,82.48
2018-12-20T16:43:54.161Z,82.17
2018-12-20T16:49:57.500Z,82.70
2018-12-20T16:56:00.862Z,82.72
2018-12-20T17:02:04.206Z,82.04
2018-12-20T17:08:07.540Z,81.83
2018-12-20T17:14:10.911Z,81.72
2018-12-20T17:20:14.265Z,81.92
2018-12-20T17:26:17.597Z,82.31
2018-12-20T17:32:20.930Z,81.83
2018-12-20T17:38:24.272Z,82.08
2018-12-20T17:44:27.598Z,81.59
2018-12-20T17:50:30.975Z,81.99
2018-12-20T17:56:34.293Z,81.98
2018-12-20T18:02:37.654Z,82.18
2018-12-20T18:08:41.239Z,81.96
2018-12-20T18:14:44.567Z,80.91
2018-12-20T18:20:47.908Z,80.99
2018-12-20T18:26:51.271Z,81.50
2018-12-20T18:32:54.614Z,81.17
2018-12-20T18:38:57.945Z,81.04
2018-12-20T18:45:01.272Z,82.52
2018-12-20T18:51:04.713Z,83.58
2018-12-20T18:57:08.052Z,84.99
2018-12-20T19:03:11.372Z,85.95
2018-12-20T19:09:14.703Z,86.91
2018-12-20T19:15:18.135Z,87.09
2018-12-20T19:21:21.537Z,87.69
2018-12-20T19:27:24.869Z,88.83
2018-12-20T19:33:28.187Z,88.27
2018-12-20T19:39:31.524Z,88.06
2018-12-20T19:45:34.854Z,87.87
2018-12-20T19:51:38.305Z,87.14
2018-12-20T19:57:41.643Z,87.79
2018-12-20T20:03:45.005Z,87.04
2018-12-20T20:09:48.494Z,87.43
2018-12-20T20:15:51.840Z,87.61
2018-12-20T20:21:55.187Z,86.33
2018-12-20T20:27:58.524Z,86.93
2018-12-20T20:34:01.889Z,86.69
2018-12-20T20:40:07.711Z,86.13
2018-12-20T20:46:11.045Z,86.79
2018-12-20T20:52:14.370Z,86.29
2018-12-20T20:58:17.696Z,86.45
2018-12-20T21:04:21.048Z,86.38
2018-12-20T21:10:24.392Z,86.11
2018-12-20T21:16:27.732Z,85.86
2018-12-20T21:22:31.070Z,85.31
2018-12-20T21:28:34.403Z,85.29
2018-12-20T21:34:37.736Z,85.42
2018-12-20T21:40:41.083Z,84.97
2018-12-20T21:46:44.482Z,85.02
2018-12-20T21:52:47.909Z,85.07
2018-12-20T21:58:51.255Z,85.33
2018-12-20T22:04:54.600Z,86.65
2018-12-20T22:10:57.928Z,86.65
2018-12-20T22:17:01.270Z,86.34
2018-12-20T22:23:04.603Z,86.55
2018-12-20T22:29:07.953Z,86.71
2018-12-20T22:35:11.278Z,86.19
2018-12-20T22:41:14.712Z,86.49
2018-12-20T22:47:18.162Z,86.32
2018-12-20T22:53:21.482Z,86.21
2018-12-20T22:59:24.835Z,85.48
2018-12-20T23:05:28.154Z,84.65
2018-12-20T23:11:31.478Z,85.07
2018-12-20T23:17:34.806Z,84.68
2018-12-20T23:23:38.165Z,84.73
2018-12-20T23:29:41.515Z,85.20
2018-12-20T23:35:44.865Z,86.49
2018-12-20T23:41:48.203Z,86.52
2018-12-20T23:47:51.524Z,86.41
2018-12-20T23:53:55.018Z,85.92
2018-12-20T23:59:58.351Z,85.16
